»·PEaware :: N830MD KVCV-E25

N830MD :: KVCV-E25

FLIGHT INFORMATION

Flight Status: Arrived
Operator: Privately registered:
United States
More flights under this callsign
Pilot: Mike D. (13097)
Aircraft: SOCATA TBM-850
(TBM8)
More flights by this aircraft type
Origin: KVCV Socal Logistics
United States
Destination: E25 Wickenburg Mun
United States
More flights between these airports :: More routes between these airports
Route: +APLES V386 PSP V16 PXR
File this flight plan on PilotEdge
Remarks:
Altitude:
(Current/Filed)
19,000ft
Speed:
(Current/Filed)
292kts
Departed: 23-Sep-18 10:29 AM
Arrived: 23-Sep-18 11:30 AM
Distance/Time
Traveled:
230nm/1:01
Distance/Time
To Go:
Arrived

Flight Plot

Page will automatically refresh every two minutes.

Flight plan parsing failed; only flown route is shown


Map Options




Map Legend


Flown Route
Filed Route
Departure Airport
Arrival Airport
Navaid (VOR, NDB)
Fix

Horizontal Profiles

Position Reports

Time Latitude Longitude Heading Altitude Ground
Speed
23-Sep-18 09:47 34.585036 -117.378281 134 2889ft 0kts
23-Sep-18 09:48 34.585036 -117.378281 134 2889ft 0kts
23-Sep-18 09:49 34.585036 -117.378281 134 2889ft 0kts
23-Sep-18 09:50 34.585036 -117.378281 134 2889ft 0kts
23-Sep-18 09:51 34.585036 -117.378281 134 2889ft 0kts
23-Sep-18 09:52 34.585036 -117.378281 134 2889ft 0kts
23-Sep-18 09:53 34.585036 -117.378281 134 2889ft 0kts
23-Sep-18 09:54 34.585036 -117.378281 134 2889ft 0kts
23-Sep-18 09:55 34.585036 -117.378281 134 2889ft 0kts
23-Sep-18 09:56 34.585036 -117.378281 134 2889ft 0kts
23-Sep-18 09:57 34.585036 -117.378281 134 2889ft 0kts
23-Sep-18 09:58 34.585036 -117.378281 134 2889ft 0kts
23-Sep-18 09:59 34.585036 -117.378281 134 2889ft 0kts
23-Sep-18 10:00 34.585036 -117.378281 134 2889ft 0kts
23-Sep-18 10:01 34.585036 -117.378281 134 2889ft 0kts
23-Sep-18 10:02 34.585036 -117.378281 134 2889ft 0kts
23-Sep-18 10:03 34.585036 -117.378281 134 2889ft 0kts
23-Sep-18 10:04 34.585036 -117.378281 134 2889ft 0kts
23-Sep-18 10:05 34.585036 -117.378281 134 2889ft 0kts
23-Sep-18 10:06 34.585036 -117.378281 134 2889ft 0kts
23-Sep-18 10:07 34.585036 -117.378281 134 2889ft 0kts
23-Sep-18 10:08 34.585036 -117.378281 134 2889ft 0kts
23-Sep-18 10:09 34.585036 -117.378281 134 2889ft 0kts
23-Sep-18 10:10 34.585036 -117.378281 134 2889ft 0kts
23-Sep-18 10:11 34.585036 -117.378281 134 2889ft 0kts
23-Sep-18 10:12 34.585036 -117.378281 134 2889ft 0kts
23-Sep-18 10:13 34.585036 -117.378281 134 2889ft 0kts
23-Sep-18 10:14 34.585036 -117.378281 134 2889ft 0kts
23-Sep-18 10:15 34.585036 -117.378281 134 2889ft 0kts
23-Sep-18 10:16 34.585036 -117.378281 134 2889ft 0kts
23-Sep-18 10:17 34.585036 -117.378281 134 2889ft 0kts
23-Sep-18 10:18 34.585036 -117.378281 134 2889ft 0kts
23-Sep-18 10:19 34.585036 -117.378281 134 2889ft 0kts
23-Sep-18 10:20 34.585036 -117.378281 134 2889ft 0kts
23-Sep-18 10:21 34.585510 -117.378866 134 2889ft 2kts
23-Sep-18 10:22 34.586086 -117.379578 134 2889ft 2kts
23-Sep-18 10:23 34.586512 -117.379598 43 2889ft 5kts
23-Sep-18 10:24 34.588617 -117.377102 43 2889ft 14kts
23-Sep-18 10:25 34.591893 -117.373164 43 2889ft 17kts
23-Sep-18 10:26 34.592756 -117.369128 91 2889ft 16kts
23-Sep-18 10:27 34.594925 -117.366819 8 2889ft 9kts
23-Sep-18 10:28 34.598778 -117.365996 11 2889ft 16kts
23-Sep-18 10:29 34.599708 -117.366323 337 2889ft 0kts
23-Sep-18 10:30 34.599922 -117.366422 341 2889ft 7kts
23-Sep-18 10:31 34.590236 -117.378764 221 2997ft 112kts
23-Sep-18 10:32 34.570847 -117.409788 270 4348ft 122kts
23-Sep-18 10:33 34.573348 -117.457471 272 5715ft 153kts
23-Sep-18 10:34 34.593266 -117.499200 5 7686ft 163kts
23-Sep-18 10:35 34.605955 -117.448781 99 9176ft 182kts
23-Sep-18 10:36 34.599262 -117.384644 100 11094ft 200kts
23-Sep-18 10:37 34.591239 -117.315574 100 12811ft 222kts
23-Sep-18 10:38 34.576078 -117.232413 108 13003ft 275kts
23-Sep-18 10:39 34.552826 -117.140640 104 12995ft 292kts
23-Sep-18 10:40 34.539309 -117.042903 98 13156ft 291kts
23-Sep-18 10:41 34.529249 -116.944516 97 13191ft 296kts
23-Sep-18 10:42 34.520220 -116.852385 97 14898ft 256kts
23-Sep-18 10:43 34.512019 -116.769090 97 16880ft 243kts
23-Sep-18 10:44 34.501891 -116.690789 124 18924ft 238kts
23-Sep-18 10:45 34.440285 -116.652246 168 19181ft 276kts
23-Sep-18 10:46 34.366113 -116.614459 145 19179ft 307kts
23-Sep-18 10:47 34.306449 -116.537606 131 19180ft 318kts
23-Sep-18 10:48 34.265820 -116.440833 116 19155ft 326kts
23-Sep-18 10:49 34.229155 -116.340373 117 19157ft 325kts
23-Sep-18 10:50 34.191305 -116.241331 118 19064ft 326kts
23-Sep-18 10:51 34.152579 -116.142279 118 19060ft 324kts
23-Sep-18 10:52 34.113933 -116.044426 118 19068ft 323kts
23-Sep-18 10:53 34.074840 -115.946004 118 19016ft 325kts
23-Sep-18 10:54 34.035714 -115.847805 118 19022ft 325kts
23-Sep-18 10:55 33.996529 -115.749779 118 19012ft 325kts
23-Sep-18 10:56 33.957094 -115.651423 119 19005ft 325kts
23-Sep-18 10:57 33.917749 -115.553569 119 19001ft 325kts
23-Sep-18 10:58 33.878217 -115.455540 119 18969ft 325kts
23-Sep-18 10:59 33.838557 -115.357438 119 18983ft 325kts
23-Sep-18 11:00 33.798953 -115.259761 119 18962ft 325kts
23-Sep-18 11:01 33.759266 -115.162115 119 18971ft 324kts
23-Sep-18 11:02 33.719284 -115.064069 118 18890ft 327kts
23-Sep-18 11:03 33.679257 -114.966001 118 18871ft 327kts
23-Sep-18 11:04 33.639822 -114.869369 119 18285ft 313kts
23-Sep-18 11:05 33.607084 -114.773876 103 17020ft 303kts
23-Sep-18 11:06 33.595275 -114.679634 98 16944ft 269kts
23-Sep-18 11:07 33.587865 -114.585370 95 17000ft 295kts
23-Sep-18 11:08 33.582048 -114.485625 95 16995ft 303kts
23-Sep-18 11:09 33.576595 -114.382999 95 17001ft 314kts
23-Sep-18 11:10 33.571080 -114.277342 94 16994ft 318kts
23-Sep-18 11:11 33.565538 -114.171456 95 16956ft 320kts
23-Sep-18 11:12 33.559910 -114.065235 95 16939ft 318kts
23-Sep-18 11:13 33.554218 -113.959205 95 16944ft 318kts
23-Sep-18 11:14 33.572559 -113.858124 62 16673ft 319kts
23-Sep-18 11:15 33.613239 -113.763485 63 15175ft 313kts
23-Sep-18 11:16 33.650034 -113.670883 65 13677ft 303kts
23-Sep-18 11:17 33.684171 -113.580386 66 12178ft 291kts
23-Sep-18 11:18 33.716569 -113.492728 67 10675ft 282kts
23-Sep-18 11:19 33.747812 -113.407437 67 9219ft 274kts
23-Sep-18 11:20 33.776557 -113.328794 67 8991ft 245kts
23-Sep-18 11:21 33.803270 -113.255522 67 8984ft 234kts
23-Sep-18 11:22 33.829038 -113.184584 67 8988ft 229kts
23-Sep-18 11:23 33.854417 -113.114470 67 8991ft 228kts
23-Sep-18 11:24 33.878942 -113.045136 69 8650ft 205kts
23-Sep-18 11:25 33.896840 -112.981463 75 6615ft 200kts
23-Sep-18 11:26 33.926529 -112.929803 55 4601ft 198kts
23-Sep-18 11:27 33.957019 -112.876669 56 3193ft 182kts
23-Sep-18 11:28 33.984826 -112.823902 62 3204ft 196kts
23-Sep-18 11:29 34.009005 -112.769713 97 3502ft 157kts
23-Sep-18 11:30 33.988928 -112.755107 302 3285ft 121kts
23-Sep-18 11:31 33.976253 -112.781591 239 2589ft 77kts
23-Sep-18 11:32 33.968477 -112.799615 234 2390ft 16kts
23-Sep-18 11:33 33.967044 -112.801462 180 2390ft 7kts
23-Sep-18 11:34 33.966423 -112.801718 153 2390ft 0kts
23-Sep-18 11:35 33.966421 -112.801716 153 2390ft 0kts
23-Sep-18 11:36 33.966421 -112.801716 153 2390ft 0kts
23-Sep-18 11:37 33.966421 -112.801716 153 2390ft 0kts
23-Sep-18 11:38 33.966421 -112.801716 153 2390ft 0kts
23-Sep-18 11:39 33.966421 -112.801716 153 2390ft 0kts
23-Sep-18 11:40 33.966421 -112.801716 153 2390ft 0kts
23-Sep-18 11:41 33.966421 -112.801716 153 2390ft 0kts
23-Sep-18 11:42 33.966421 -112.801716 153 2390ft 0kts
23-Sep-18 11:43 33.966421 -112.801716 153 2390ft 0kts

Navigation Log

Ident Type
Flight plan parsing failed, navigation log unavailable